Time;durP1;ratioP1;P1;durP2;ratioP2;P2;SDS_P1;SDS_P2;PMS_P1;PMS_P2;Temp;Humidity;BMP_temperature;BMP_pressure;BME280_temperature;BME280_humidity;BME280_pressure;Samples;Min_cycle;Max_cycle;Signal;HPM_P1;HPM_P2
2020/12/01 00:00:31;;;;;;;14.90;11.03;;;2.40;99.90;;;;;;5061145;28;20184;-67
2020/12/01 00:02:57;;;;;;;13.23;9.47;;;2.50;99.90;;;;;;5059835;28;20174;-71
2020/12/01 09:58:40;;;;;;;20.33;13.67;;;3.70;99.90;;;;;;5120217;28;20666;-63
2020/12/01 10:12:20;;;;;;;21.50;15.63;;;3.90;99.90;;;;;;5051106;28;20183;-61
2020/12/01 10:20:58;;;;;;;18.97;14.87;;;4.20;99.90;;;;;;5066531;28;20551;-61
2020/12/01 10:26:12;;;;;;;19.03;14.10;;;4.40;99.90;;;;;;5067431;28;20551;-62
2020/12/01 10:30:07;;;;;;;20.10;16.17;;;4.40;99.90;;;;;;5065715;28;20648;-62
2020/12/01 10:31:58;;;;;;;18.13;14.30;;;4.50;99.90;;;;;;5063641;28;20177;-62
2020/12/01 10:36:50;;;;;;;24.07;16.27;;;4.40;99.90;;;;;;5067033;28;20247;-62
2020/12/01 10:39:15;;;;;;;18.13;15.50;;;4.50;99.90;;;;;;5066286;28;20204;-62
2020/12/01 10:41:42;;;;;;;20.67;15.43;;;4.70;99.90;;;;;;5046092;28;20620;-62
2020/12/01 10:44:08;;;;;;;19.80;16.13;;;4.50;99.90;;;;;;5066216;28;20219;-61
2020/12/01 10:49:55;;;;;;;20.97;15.73;;;4.60;99.90;;;;;;5066135;28;20547;-77
2020/12/01 10:52:21;;;;;;;21.70;16.93;;;4.60;99.90;;;;;;5070180;28;20185;-76
2020/12/01 10:54:47;;;;;;;23.43;15.87;;;4.70;99.90;;;;;;5064662;28;20183;-76
2020/12/01 10:57:12;;;;;;;19.83;15.80;;;4.80;99.90;;;;;;5088533;28;20259;-77
2020/12/01 10:59:38;;;;;;;17.27;13.13;;;4.60;99.90;;;;;;5078105;28;20173;-75
2020/12/01 11:02:04;;;;;;;20.57;16.23;;;4.50;99.90;;;;;;5076994;28;20185;-77
2020/12/01 11:04:29;;;;;;;17.77;13.93;;;4.40;99.90;;;;;;5065367;28;20189;-75
2020/12/01 11:06:55;;;;;;;17.93;13.87;;;4.30;99.90;;;;;;5051473;28;20213;-76
2020/12/01 11:09:20;;;;;;;19.77;16.23;;;4.20;99.90;;;;;;5053645;28;20637;-75
2020/12/01 11:11:46;;;;;;;20.07;15.23;;;4.20;99.90;;;;;;5053138;28;20633;-75
2020/12/01 11:14:11;;;;;;;19.73;15.37;;;4.30;99.90;;;;;;5053215;28;20201;-76
2020/12/01 11:16:37;;;;;;;21.10;15.40;;;4.20;99.90;;;;;;5053212;28;20190;-77
2020/12/01 11:19:04;;;;;;;19.10;14.87;;;4.10;99.90;;;;;;5053351;28;20527;-75
2020/12/01 11:21:32;;;;;;;18.33;14.83;;;4.20;99.90;;;;;;5035317;28;20174;-75
2020/12/01 11:23:57;;;;;;;18.47;14.23;;;4.10;99.90;;;;;;5053642;28;20182;-71
2020/12/01 11:26:23;;;;;;;19.57;15.93;;;4.10;99.90;;;;;;5049691;28;20580;-75
2020/12/01 11:28:49;;;;;;;21.10;15.00;;;4.20;99.90;;;;;;5042158;28;20166;-75
2020/12/01 11:31:17;;;;;;;21.23;15.33;;;4.30;99.90;;;;;;5051890;28;20236;-75
2020/12/01 11:33:43;;;;;;;19.87;15.57;;;4.20;99.90;;;;;;5048680;28;20243;-74
2020/12/01 11:36:09;;;;;;;21.00;15.37;;;4.30;99.90;;;;;;5033030;28;20182;-74
2020/12/01 11:38:34;;;;;;;20.23;15.10;;;4.20;99.90;;;;;;5049814;28;20193;-74
2020/12/01 11:41:00;;;;;;;21.73;16.83;;;4.10;99.90;;;;;;5039456;28;20637;-74
2020/12/01 11:43:25;;;;;;;21.57;15.20;;;4.10;99.90;;;;;;5048998;28;20224;-73
2020/12/01 11:45:52;;;;;;;22.87;15.90;;;4.20;99.90;;;;;;5052391;28;20185;-73
2020/12/01 11:48:18;;;;;;;21.87;16.13;;;4.20;99.90;;;;;;5047966;28;20205;-74
2020/12/01 11:50:43;;;;;;;23.83;17.80;;;4.30;99.90;;;;;;5051995;28;20285;-74
2020/12/01 11:53:09;;;;;;;21.67;16.00;;;4.40;99.90;;;;;;5051517;28;20202;-74
2020/12/01 11:55:34;;;;;;;20.13;15.30;;;4.40;99.90;;;;;;5023491;28;20541;-74
2020/12/01 11:58:00;;;;;;;20.93;14.80;;;4.40;99.90;;;;;;5046322;28;20604;-74
2020/12/01 12:00:26;;;;;;;19.97;17.03;;;4.40;99.90;;;;;;5051819;28;20174;-74
2020/12/01 12:02:52;;;;;;;20.30;14.77;;;4.50;99.90;;;;;;5052176;28;20230;-75
2020/12/01 12:05:17;;;;;;;19.17;15.90;;;4.40;99.90;;;;;;5040262;28;20268;-76
2020/12/01 12:07:43;;;;;;;21.50;15.90;;;4.30;99.90;;;;;;5052067;28;20217;-73
2020/12/01 12:10:09;;;;;;;20.77;15.63;;;4.40;99.90;;;;;;5042902;28;20174;-73
2020/12/01 12:12:34;;;;;;;17.80;14.63;;;4.40;99.90;;;;;;5050833;28;20672;-75
2020/12/01 12:15:00;;;;;;;21.17;14.77;;;4.40;99.90;;;;;;5051459;28;20186;-73
2020/12/01 12:17:26;;;;;;;20.13;15.37;;;4.30;99.90;;;;;;5050193;28;20219;-73
2020/12/01 12:19:51;;;;;;;24.57;15.57;;;4.30;99.90;;;;;;5051099;28;20182;-73
2020/12/01 12:22:17;;;;;;;18.93;15.17;;;4.30;99.90;;;;;;5048658;28;20181;-74
2020/12/01 12:24:42;;;;;;;24.23;16.60;;;4.40;99.90;;;;;;5051738;28;20182;-76
2020/12/01 12:27:08;;;;;;;20.17;15.70;;;4.50;99.90;;;;;;5049636;28;20264;-74
2020/12/01 12:29:33;;;;;;;23.03;17.10;;;4.60;99.90;;;;;;5051912;28;20170;-75
2020/12/01 12:31:59;;;;;;;22.50;15.97;;;4.60;99.90;;;;;;5048370;28;20178;-74
2020/12/01 12:34:24;;;;;;;23.03;17.83;;;4.60;99.90;;;;;;5049933;28;20740;-74
2020/12/01 12:36:50;;;;;;;23.87;15.97;;;4.70;99.90;;;;;;5051708;28;20562;-75
2020/12/01 12:39:15;;;;;;;23.90;17.90;;;4.60;99.90;;;;;;5050493;28;20166;-75
2020/12/01 12:41:41;;;;;;;26.37;16.97;;;4.50;99.90;;;;;;5050506;28;20221;-75
2020/12/01 12:44:09;;;;;;;23.03;18.57;;;4.50;99.90;;;;;;5050142;28;20588;-74
2020/12/01 12:46:36;;;;;;;22.70;17.07;;;4.50;99.90;;;;;;5050590;28;20680;-74
2020/12/01 12:49:02;;;;;;;24.43;17.83;;;4.60;99.90;;;;;;5048258;28;20185;-74
2020/12/01 12:51:27;;;;;;;23.50;17.30;;;4.60;99.90;;;;;;5050727;28;20269;-74
2020/12/01 12:53:53;;;;;;;24.87;18.03;;;4.60;99.90;;;;;;5050413;28;20209;-74
2020/12/01 12:56:22;;;;;;;26.37;18.37;;;4.50;99.90;;;;;;5049470;28;20235;-74
2020/12/01 12:58:47;;;;;;;23.47;17.43;;;4.60;99.90;;;;;;5046151;28;20190;-73
2020/12/01 13:01:13;;;;;;;25.20;15.80;;;4.60;99.90;;;;;;5045723;28;20739;-73
2020/12/01 13:03:38;;;;;;;22.30;16.47;;;4.60;99.90;;;;;;5044859;28;20228;-73
2020/12/01 13:06:04;;;;;;;22.27;17.33;;;4.50;99.90;;;;;;5047146;28;20634;-69
2020/12/01 13:08:29;;;;;;;23.60;17.40;;;4.50;99.90;;;;;;5041789;28;20248;-74
2020/12/01 13:10:54;;;;;;;23.90;17.10;;;4.50;99.90;;;;;;5047861;28;20193;-73
2020/12/01 13:13:20;;;;;;;22.60;17.07;;;4.50;99.90;;;;;;5040229;28;20260;-75
2020/12/01 13:15:45;;;;;;;25.57;17.23;;;4.50;99.90;;;;;;5041050;28;20628;-73
2020/12/01 13:18:11;;;;;;;25.83;18.40;;;4.60;99.90;;;;;;5046199;28;20206;-73
2020/12/01 13:20:36;;;;;;;22.27;17.63;;;4.60;99.90;;;;;;5049332;28;20527;-74
2020/12/01 13:23:02;;;;;;;23.67;17.47;;;4.60;99.90;;;;;;5048810;28;20549;-74
2020/12/01 13:25:28;;;;;;;23.73;17.93;;;4.60;99.90;;;;;;5049762;28;20253;-74
2020/12/01 13:27:53;;;;;;;26.13;18.27;;;4.50;99.90;;;;;;5050410;28;20192;-73
2020/12/01 13:30:21;;;;;;;24.50;18.33;;;4.60;99.90;;;;;;5050606;28;20174;-73
2020/12/01 13:32:47;;;;;;;25.27;17.43;;;4.60;99.90;;;;;;5050870;28;20221;-74
2020/12/01 13:35:15;;;;;;;26.77;18.70;;;4.60;99.90;;;;;;5051186;28;20248;-74
2020/12/01 13:37:42;;;;;;;25.27;18.93;;;4.50;99.90;;;;;;5050513;28;20236;-74
2020/12/01 13:40:10;;;;;;;24.70;18.47;;;4.60;99.90;;;;;;5051108;28;20177;-73
2020/12/01 13:42:36;;;;;;;24.00;17.80;;;4.60;99.90;;;;;;5050696;28;20181;-73
2020/12/01 13:45:02;;;;;;;28.20;19.47;;;4.60;99.90;;;;;;5050348;28;20174;-73
2020/12/01 13:47:27;;;;;;;26.07;19.63;;;4.50;99.90;;;;;;5050133;28;20185;-73
2020/12/01 13:49:53;;;;;;;26.37;20.17;;;4.50;99.90;;;;;;5049963;28;20231;-72
2020/12/01 13:52:18;;;;;;;30.17;21.23;;;4.50;99.90;;;;;;5049782;28;20648;-73
2020/12/01 13:54:44;;;;;;;29.63;20.77;;;4.60;99.90;;;;;;5032478;28;20173;-73
2020/12/01 13:57:11;;;;;;;31.00;20.70;;;4.50;99.90;;;;;;5050234;28;20258;-72
2020/12/01 13:59:37;;;;;;;31.20;23.10;;;4.40;99.90;;;;;;5050411;28;20166;-73
2020/12/01 14:02:03;;;;;;;30.87;21.17;;;4.40;99.90;;;;;;5049909;28;20231;-72
2020/12/01 14:04:28;;;;;;;37.67;22.93;;;4.30;99.90;;;;;;5050380;28;20197;-73
2020/12/01 14:06:55;;;;;;;35.73;23.80;;;4.20;99.90;;;;;;5050053;28;20640;-72
2020/12/01 14:09:23;;;;;;;34.07;21.87;;;4.20;99.90;;;;;;5050315;28;20669;-73
2020/12/01 14:11:50;;;;;;;32.30;21.10;;;4.20;99.90;;;;;;5050187;28;20264;-74
2020/12/01 14:14:16;;;;;;;35.63;23.83;;;4.20;99.90;;;;;;5050031;28;20676;-73
2020/12/01 14:16:42;;;;;;;36.30;23.17;;;4.20;99.90;;;;;;5049893;28;20186;-73
2020/12/01 14:19:07;;;;;;;36.20;23.40;;;4.20;99.90;;;;;;5048049;28;20338;-73
2020/12/01 14:21:33;;;;;;;36.80;24.03;;;4.30;99.90;;;;;;5052947;28;20184;-73
2020/12/01 14:23:58;;;;;;;37.13;24.60;;;4.30;99.90;;;;;;5050571;28;20181;-72
2020/12/01 14:26:24;;;;;;;37.53;23.57;;;4.30;99.90;;;;;;5045529;28;20190;-72
2020/12/01 14:28:53;;;;;;;34.57;23.00;;;4.30;99.90;;;;;;5041347;28;20209;-73
2020/12/01 14:31:19;;;;;;;34.53;23.40;;;4.40;99.90;;;;;;5046466;28;20190;-73
2020/12/01 14:33:45;;;;;;;32.27;21.63;;;4.40;99.90;;;;;;5037879;28;20741;-73
2020/12/01 14:36:11;;;;;;;32.07;20.93;;;4.30;99.90;;;;;;5044771;28;20299;-72
2020/12/01 14:38:36;;;;;;;32.27;21.63;;;4.30;99.90;;;;;;5048943;28;20634;-73
2020/12/01 14:41:02;;;;;;;33.47;22.10;;;4.20;99.90;;;;;;5033686;28;20177;-73
2020/12/01 14:43:27;;;;;;;27.83;20.60;;;4.20;99.90;;;;;;5053857;28;20178;-74
2020/12/01 14:45:57;;;;;;;27.43;20.50;;;4.30;99.90;;;;;;5053278;28;20177;-74
2020/12/01 14:48:48;;;;;;;32.47;21.83;;;4.30;99.90;;;;;;5053188;28;20668;-73
2020/12/01 14:51:18;;;;;;;29.60;21.43;;;4.40;99.90;;;;;;5041444;28;20197;-73
2020/12/01 14:53:56;;;;;;;28.20;20.27;;;4.40;99.90;;;;;;5037306;28;20202;-73
2020/12/01 14:56:42;;;;;;;29.27;20.43;;;4.40;99.90;;;;;;5027268;28;20200;-72
2020/12/01 14:59:41;;;;;;;28.23;19.67;;;4.40;99.90;;;;;;5052035;28;20211;-73
2020/12/01 15:02:30;;;;;;;26.87;19.50;;;4.50;99.90;;;;;;5051657;28;20176;-73
2020/12/01 15:05:20;;;;;;;26.60;18.77;;;4.40;99.90;;;;;;5045534;28;20300;-71
2020/12/01 15:08:19;;;;;;;24.00;17.33;;;4.40;99.90;;;;;;5049830;28;20285;-71
2020/12/01 15:11:12;;;;;;;27.33;19.50;;;4.40;99.90;;;;;;5052516;28;20231;-72
2020/12/01 15:13:41;;;;;;;25.47;19.27;;;4.30;99.90;;;;;;5052712;28;20284;-71
2020/12/01 15:16:21;;;;;;;26.83;18.07;;;4.40;99.90;;;;;;5052910;28;20776;-72
2020/12/01 15:18:51;;;;;;;28.60;20.87;;;4.40;99.90;;;;;;5040487;28;20197;-72
2020/12/01 15:21:17;;;;;;;25.57;19.07;;;4.40;99.90;;;;;;5036757;28;20173;-72
2020/12/01 15:24:05;;;;;;;25.87;18.63;;;4.40;99.90;;;;;;5054150;28;20537;-72
2020/12/01 15:26:30;;;;;;;27.50;19.43;;;4.40;99.90;;;;;;5053379;28;20208;-72
2020/12/01 15:28:56;;;;;;;24.83;18.47;;;4.40;99.90;;;;;;5052744;28;20178;-72
2020/12/01 15:31:27;;;;;;;24.60;18.40;;;4.40;99.90;;;;;;5052401;28;20186;-72
2020/12/01 15:33:54;;;;;;;24.63;18.17;;;4.40;99.90;;;;;;5052543;28;20574;-72
2020/12/01 15:36:29;;;;;;;25.33;19.60;;;4.40;99.90;;;;;;5052460;28;20174;-72
2020/12/01 15:38:56;;;;;;;24.57;18.33;;;4.30;99.90;;;;;;5052610;28;20193;-72
2020/12/01 15:41:22;;;;;;;24.93;18.43;;;4.30;99.90;;;;;;5052276;28;20174;-72
2020/12/01 15:43:53;;;;;;;23.23;18.10;;;4.30;99.90;;;;;;5052380;28;20188;-72
2020/12/01 15:46:23;;;;;;;27.47;19.60;;;4.30;99.90;;;;;;5052218;28;20188;-72
2020/12/01 15:48:49;;;;;;;25.70;18.03;;;4.30;99.90;;;;;;5052437;28;20201;-72
2020/12/01 15:51:33;;;;;;;29.50;20.23;;;4.20;99.90;;;;;;5052506;28;20177;-72
2020/12/01 15:54:03;;;;;;;26.03;19.10;;;4.20;99.90;;;;;;5052845;28;20201;-72
2020/12/01 15:56:51;;;;;;;25.23;18.87;;;4.20;99.90;;;;;;5052348;28;20174;-73
2020/12/01 15:59:43;;;;;;;27.67;19.73;;;4.10;99.90;;;;;;5052345;28;20224;-73
2020/12/01 16:02:21;;;;;;;24.40;18.13;;;4.10;99.90;;;;;;5051738;28;20688;-73
2020/12/01 16:05:19;;;;;;;23.07;18.47;;;4.10;99.90;;;;;;5051951;28;20172;-71
2020/12/01 16:07:48;;;;;;;28.87;19.70;;;4.10;99.90;;;;;;5063490;22;20232;-71
2020/12/01 16:10:24;;;;;;;25.90;18.53;;;4.10;99.90;;;;;;5071860;28;20648;-70
2020/12/01 16:13:11;;;;;;;29.43;20.33;;;4.00;99.90;;;;;;5072020;28;20219;-71
2020/12/01 16:15:55;;;;;;;28.07;18.80;;;4.00;99.90;;;;;;5072156;28;20170;-71
2020/12/01 16:18:27;;;;;;;29.40;20.60;;;3.90;99.90;;;;;;5071485;28;20275;-69
2020/12/01 16:21:11;;;;;;;31.33;21.50;;;3.90;99.90;;;;;;5071799;28;20189;-72
2020/12/01 16:23:41;;;;;;;28.73;20.23;;;3.90;99.90;;;;;;5065357;28;20181;-71
2020/12/01 16:26:16;;;;;;;28.57;21.07;;;3.90;99.90;;;;;;5069227;28;20180;-71
2020/12/01 16:28:42;;;;;;;24.93;17.87;;;3.90;99.90;;;;;;5057089;28;20191;-70
2020/12/01 16:31:07;;;;;;;28.63;19.90;;;3.70;99.90;;;;;;5078359;28;20499;-70
2020/12/01 16:33:33;;;;;;;28.33;19.87;;;3.70;99.90;;;;;;5093006;28;20396;-69
2020/12/01 16:35:59;;;;;;;28.97;19.70;;;3.60;99.90;;;;;;5102644;28;20168;-71
2020/12/01 16:38:39;;;;;;;26.77;19.13;;;3.60;99.90;;;;;;5105459;28;20177;-70
2020/12/01 16:41:17;;;;;;;29.27;20.90;;;3.50;99.90;;;;;;5093790;28;20188;-70
2020/12/01 16:44:19;;;;;;;28.33;21.10;;;3.50;99.90;;;;;;5095313;28;20236;-70
2020/12/01 16:47:23;;;;;;;27.20;20.03;;;3.50;99.90;;;;;;5083330;28;20226;-70
2020/12/01 16:50:25;;;;;;;28.60;21.00;;;3.60;99.90;;;;;;5081713;28;20417;-70
2020/12/01 16:53:17;;;;;;;28.50;20.60;;;3.60;99.90;;;;;;5076939;28;20691;-70
2020/12/01 16:55:59;;;;;;;25.73;18.90;;;3.70;99.90;;;;;;5071620;28;20185;-71
2020/12/01 16:59:08;;;;;;;28.27;18.87;;;3.80;99.90;;;;;;5067933;28;20265;-70
2020/12/01 17:01:43;;;;;;;30.07;20.87;;;3.80;99.90;;;;;;5038668;28;20200;-70
2020/12/01 17:04:30;;;;;;;28.87;20.83;;;3.80;99.90;;;;;;5053822;28;20165;-70
2020/12/01 17:07:03;;;;;;;28.73;19.73;;;3.80;99.90;;;;;;5052066;28;20558;-69
2020/12/01 17:09:30;;;;;;;26.73;19.70;;;3.80;99.90;;;;;;5051893;28;20389;-70
2020/12/01 17:12:26;;;;;;;30.43;21.23;;;3.80;99.90;;;;;;5051848;28;20330;-72
2020/12/01 17:15:15;;;;;;;26.53;19.40;;;3.90;99.90;;;;;;5052593;28;20527;-70
2020/12/01 17:17:53;;;;;;;33.07;20.73;;;3.90;99.90;;;;;;5051767;28;20186;-72
2020/12/01 17:20:19;;;;;;;28.83;20.83;;;3.90;99.90;;;;;;5034388;28;20578;-71
2020/12/01 17:22:46;;;;;;;30.67;21.37;;;4.00;99.90;;;;;;5052471;28;20180;-72
2020/12/01 17:25:16;;;;;;;29.30;20.93;;;4.00;99.90;;;;;;5052669;28;20227;-72
2020/12/01 17:27:43;;;;;;;27.10;20.27;;;4.00;99.90;;;;;;5052159;28;20189;-70
2020/12/01 17:30:42;;;;;;;31.67;21.90;;;4.00;99.90;;;;;;5051497;28;20261;-71
2020/12/01 17:33:21;;;;;;;29.07;21.33;;;4.00;99.90;;;;;;5051601;28;20202;-71
2020/12/01 17:36:01;;;;;;;33.27;21.33;;;4.10;99.90;;;;;;5051441;28;20184;-72
2020/12/01 17:38:45;;;;;;;30.43;21.93;;;4.10;99.90;;;;;;5051088;28;20197;-70
2020/12/01 17:41:25;;;;;;;31.07;22.53;;;4.10;99.90;;;;;;5033303;28;20368;-71
2020/12/01 17:44:08;;;;;;;28.97;20.40;;;4.20;99.90;;;;;;5051080;28;20188;-70
2020/12/01 17:46:51;;;;;;;32.37;22.57;;;4.20;99.90;;;;;;5050724;28;20264;-69
2020/12/01 17:49:23;;;;;;;35.60;23.60;;;4.20;99.90;;;;;;5051046;28;20177;-71
2020/12/01 17:51:53;;;;;;;31.73;22.07;;;4.10;99.90;;;;;;5051703;28;20181;-69
2020/12/01 17:54:22;;;;;;;30.53;20.83;;;4.10;99.90;;;;;;5050975;28;20248;-71
2020/12/01 17:56:56;;;;;;;33.27;23.77;;;4.10;99.90;;;;;;5052666;28;20178;-71
2020/12/01 17:59:25;;;;;;;31.93;22.97;;;4.10;99.90;;;;;;5050678;28;20205;-71
2020/12/01 18:01:52;;;;;;;28.43;21.30;;;4.20;99.90;;;;;;5050904;28;20218;-71
2020/12/01 18:04:18;;;;;;;30.13;21.40;;;4.10;99.90;;;;;;5051023;28;20174;-70
2020/12/01 18:06:45;;;;;;;29.80;22.17;;;4.10;99.90;;;;;;5050831;28;20178;-70
2020/12/01 18:09:14;;;;;;;31.63;21.50;;;4.00;99.90;;;;;;5050509;28;20186;-70
2020/12/01 18:11:40;;;;;;;32.07;21.70;;;4.10;99.90;;;;;;5050510;28;20178;-70
2020/12/01 18:14:30;;;;;;;29.57;20.63;;;4.10;99.90;;;;;;5051001;28;20286;-71
2020/12/01 18:17:25;;;;;;;27.07;20.43;;;4.10;99.90;;;;;;5055204;28;20190;-70
2020/12/01 18:20:07;;;;;;;29.30;20.77;;;4.10;99.90;;;;;;5036999;28;20177;-71
2020/12/01 18:23:05;;;;;;;35.97;22.90;;;4.10;99.90;;;;;;5054682;28;20372;-71
2020/12/01 18:25:52;;;;;;;31.33;21.27;;;4.10;99.90;;;;;;5054911;28;20255;-70
2020/12/01 18:28:23;;;;;;;30.23;20.00;;;4.10;99.90;;;;;;5054238;28;20201;-70
2020/12/01 18:30:50;;;;;;;32.33;22.13;;;4.10;99.90;;;;;;5054348;28;20170;-70
2020/12/01 18:33:53;;;;;;;33.17;22.97;;;4.00;99.90;;;;;;5054615;28;20224;-71
2020/12/01 18:36:19;;;;;;;32.23;21.50;;;4.10;99.90;;;;;;5055214;28;20173;-70
2020/12/01 18:38:45;;;;;;;30.27;21.87;;;4.20;99.90;;;;;;5054346;28;20189;-70
2020/12/01 18:41:23;;;;;;;32.37;22.43;;;4.20;99.90;;;;;;5054095;28;20477;-70
2020/12/01 18:43:53;;;;;;;34.97;22.47;;;4.20;99.90;;;;;;5054663;28;20319;-70
2020/12/01 18:46:20;;;;;;;31.50;22.13;;;4.20;99.90;;;;;;5075501;28;20223;-70
2020/12/01 18:48:46;;;;;;;31.57;21.33;;;4.20;99.90;;;;;;5093971;28;20240;-70
2020/12/01 18:51:13;;;;;;;31.03;22.17;;;4.20;99.90;;;;;;5093859;28;20235;-70
2020/12/01 18:53:40;;;;;;;31.20;22.03;;;4.30;99.90;;;;;;5073670;28;20242;-70
2020/12/01 18:56:06;;;;;;;32.47;23.03;;;4.30;99.90;;;;;;5073278;28;20189;-70
2020/12/01 18:58:36;;;;;;;28.40;21.67;;;4.20;99.90;;;;;;5073537;28;20600;-70
2020/12/01 19:01:08;;;;;;;34.67;22.80;;;4.20;99.90;;;;;;5058836;28;20191;-69
2020/12/01 19:03:36;;;;;;;31.83;22.63;;;4.20;99.90;;;;;;5055138;28;20189;-71
2020/12/01 19:06:06;;;;;;;31.53;21.67;;;4.30;99.90;;;;;;5054121;28;20261;-70
2020/12/01 19:08:32;;;;;;;32.37;22.40;;;4.30;99.90;;;;;;5053854;28;20221;-70
2020/12/01 19:10:57;;;;;;;32.07;22.07;;;4.30;99.90;;;;;;5054073;28;20212;-70
2020/12/01 19:13:25;;;;;;;33.43;23.13;;;4.30;99.90;;;;;;5071875;28;20236;-70
2020/12/01 19:15:51;;;;;;;32.40;21.87;;;4.40;99.90;;;;;;5077699;28;20184;-70
2020/12/01 19:18:17;;;;;;;35.87;21.57;;;4.30;99.90;;;;;;5074392;28;20197;-70
2020/12/01 19:20:43;;;;;;;33.20;22.57;;;4.20;99.90;;;;;;5084870;28;20593;-70
2020/12/01 19:23:08;;;;;;;35.07;23.37;;;4.30;99.90;;;;;;5062919;28;20173;-69
2020/12/01 19:25:35;;;;;;;35.50;23.07;;;4.20;99.90;;;;;;5065865;28;20712;-69
2020/12/01 19:28:02;;;;;;;34.63;22.97;;;4.20;99.90;;;;;;5063814;28;20201;-69
2020/12/01 19:30:28;;;;;;;40.53;26.77;;;4.20;99.90;;;;;;5057730;28;20273;-70
2020/12/01 19:32:53;;;;;;;33.77;21.27;;;4.20;99.90;;;;;;5053149;28;20727;-71
2020/12/01 19:35:21;;;;;;;32.80;22.33;;;4.20;99.90;;;;;;5065343;28;20173;-71
2020/12/01 19:37:47;;;;;;;34.43;22.13;;;4.20;99.90;;;;;;5073487;28;20189;-71
2020/12/01 19:40:14;;;;;;;33.17;21.37;;;4.20;99.90;;;;;;5074488;28;20191;-69
2020/12/01 19:42:40;;;;;;;32.27;21.83;;;4.20;99.90;;;;;;5072278;28;20216;-70
2020/12/01 19:45:07;;;;;;;31.43;21.90;;;4.20;99.90;;;;;;5073294;28;20660;-71
2020/12/01 19:47:33;;;;;;;31.83;21.07;;;4.20;99.90;;;;;;5073564;28;20280;-71
2020/12/01 19:49:58;;;;;;;30.80;21.80;;;4.20;99.90;;;;;;5074297;28;20260;-71
2020/12/01 19:52:24;;;;;;;33.00;21.77;;;4.10;99.90;;;;;;5085753;28;20189;-72
2020/12/01 19:54:49;;;;;;;32.63;22.47;;;4.10;99.90;;;;;;5087196;28;20703;-71
2020/12/01 19:57:17;;;;;;;34.97;22.00;;;4.10;99.90;;;;;;5109737;28;20188;-72
2020/12/01 19:59:43;;;;;;;33.80;21.13;;;4.20;99.90;;;;;;5112174;28;20207;-67
2020/12/01 20:02:08;;;;;;;33.13;21.90;;;4.20;99.90;;;;;;5071212;28;20193;-63
2020/12/01 20:04:34;;;;;;;34.77;22.40;;;4.10;99.90;;;;;;5064336;28;20634;-65
2020/12/01 20:06:59;;;;;;;32.57;22.33;;;4.20;99.90;;;;;;5085460;28;20229;-64
2020/12/01 20:09:25;;;;;;;35.80;22.97;;;4.20;99.90;;;;;;5072497;28;20589;-63
2020/12/01 20:11:51;;;;;;;33.60;21.87;;;4.20;99.90;;;;;;5084032;28;20184;-62
2020/12/01 20:14:17;;;;;;;30.80;22.03;;;4.20;99.90;;;;;;5087795;28;20216;-63
2020/12/01 20:16:46;;;;;;;35.63;22.63;;;4.20;99.90;;;;;;5071960;28;20200;-64
2020/12/01 20:19:13;;;;;;;35.93;23.23;;;4.30;99.90;;;;;;5071753;28;20165;-63
2020/12/01 20:21:38;;;;;;;36.87;23.50;;;4.30;99.90;;;;;;5071648;28;20205;-64
2020/12/01 20:24:04;;;;;;;35.63;24.07;;;4.40;99.90;;;;;;5070668;28;20621;-64
2020/12/01 20:26:30;;;;;;;39.57;24.90;;;4.40;99.90;;;;;;5071464;28;20177;-64
2020/12/01 20:28:56;;;;;;;35.03;24.07;;;4.40;99.90;;;;;;5071536;28;20218;-65
2020/12/01 20:31:23;;;;;;;39.83;25.90;;;4.50;99.90;;;;;;5071344;28;20246;-63
2020/12/01 20:33:48;;;;;;;38.33;25.10;;;4.50;99.90;;;;;;5075419;28;20232;-63
2020/12/01 20:36:35;;;;;;;39.47;25.07;;;4.50;99.90;;;;;;5070884;28;20230;-64
2020/12/01 20:39:38;;;;;;;36.13;24.73;;;4.60;99.90;;;;;;5071189;28;20187;-64
2020/12/01 20:42:04;;;;;;;35.10;22.87;;;4.60;99.90;;;;;;5071430;28;20165;-65
2020/12/01 20:44:30;;;;;;;39.10;23.73;;;4.50;99.90;;;;;;5071980;28;20603;-63
2020/12/01 20:46:56;;;;;;;35.30;23.77;;;4.40;99.90;;;;;;5071941;28;20196;-63
2020/12/01 20:49:21;;;;;;;35.23;22.67;;;4.40;99.90;;;;;;5072523;28;20169;-63
2020/12/01 20:51:47;;;;;;;36.57;24.13;;;4.30;99.90;;;;;;5072013;28;20214;-65
2020/12/01 20:54:13;;;;;;;36.90;24.00;;;4.40;99.90;;;;;;5058718;28;20683;-64
2020/12/01 20:56:39;;;;;;;35.87;23.37;;;4.40;99.90;;;;;;5066041;28;20667;-64
2020/12/01 20:59:04;;;;;;;35.43;23.63;;;4.50;99.90;;;;;;5071303;28;20184;-64
2020/12/01 21:01:30;;;;;;;33.63;22.93;;;4.50;99.90;;;;;;5070941;28;20173;-64
2020/12/01 21:03:55;;;;;;;33.27;22.20;;;4.40;99.90;;;;;;5071316;28;20702;-64
2020/12/01 21:06:21;;;;;;;34.13;22.60;;;4.40;99.90;;;;;;5071714;28;20173;-63
2020/12/01 21:08:46;;;;;;;33.67;21.50;;;4.30;99.90;;;;;;5071355;28;20315;-64
2020/12/01 21:11:25;;;;;;;34.77;22.30;;;4.20;99.90;;;;;;5071050;28;20222;-63
2020/12/01 21:13:52;;;;;;;34.40;22.13;;;4.20;99.90;;;;;;5070586;28;20728;-63
2020/12/01 21:16:21;;;;;;;35.03;23.53;;;4.20;99.90;;;;;;5070359;28;20177;-63
2020/12/01 21:18:47;;;;;;;37.33;24.53;;;4.20;99.90;;;;;;5054067;28;20190;-64
2020/12/01 21:21:15;;;;;;;34.40;23.37;;;4.30;99.90;;;;;;5054107;28;20172;-64
2020/12/01 21:23:43;;;;;;;39.40;23.03;;;4.30;99.90;;;;;;5071080;28;20181;-65
2020/12/01 21:26:19;;;;;;;39.80;24.93;;;4.30;99.90;;;;;;5051110;28;20170;-64
2020/12/01 21:28:49;;;;;;;36.37;23.30;;;4.30;99.90;;;;;;5051031;28;20450;-63
2020/12/01 21:31:40;;;;;;;42.33;24.20;;;4.30;99.90;;;;;;5050803;28;20227;-63
2020/12/01 21:34:13;;;;;;;35.27;22.67;;;4.40;99.90;;;;;;5059852;28;20189;-64
2020/12/01 21:36:40;;;;;;;36.30;23.77;;;4.40;99.90;;;;;;5071057;28;20219;-64
2020/12/01 21:39:08;;;;;;;41.43;24.13;;;4.40;99.90;;;;;;5071094;28;20157;-64
2020/12/01 21:41:43;;;;;;;38.80;24.70;;;4.40;99.90;;;;;;5070380;28;20177;-63
2020/12/01 21:44:34;;;;;;;37.70;24.37;;;4.40;99.90;;;;;;5070892;28;20595;-65
2020/12/01 21:47:02;;;;;;;36.73;23.50;;;4.30;99.90;;;;;;5070801;28;20193;-63
2020/12/01 21:49:28;;;;;;;35.67;23.50;;;4.40;99.90;;;;;;5070527;28;20168;-64
2020/12/01 21:52:23;;;;;;;41.50;25.17;;;4.30;99.90;;;;;;5068620;28;20383;-65
2020/12/01 21:55:01;;;;;;;43.93;25.73;;;4.40;99.90;;;;;;5051569;28;20604;-64
2020/12/01 21:57:49;;;;;;;40.53;24.63;;;4.40;99.90;;;;;;5077639;28;20200;-65
2020/12/01 22:00:35;;;;;;;36.87;23.87;;;4.40;99.90;;;;;;5042296;28;20609;-67
2020/12/01 22:03:22;;;;;;;35.87;24.03;;;4.40;99.90;;;;;;5070574;28;20267;-63
2020/12/01 22:05:54;;;;;;;38.10;23.90;;;4.40;99.90;;;;;;5050828;28;20173;-64
2020/12/01 22:08:37;;;;;;;39.37;23.97;;;4.50;99.90;;;;;;5084489;22;20312;-62
2020/12/01 22:11:06;;;;;;;39.23;24.07;;;4.50;99.90;;;;;;5069205;28;20192;-60
2020/12/01 22:13:57;;;;;;;39.70;23.53;;;4.50;99.90;;;;;;5070077;28;20712;-59
2020/12/01 22:17:01;;;;;;;40.27;24.53;;;4.40;99.90;;;;;;5063259;28;20178;-60
2020/12/01 22:19:26;;;;;;;38.40;22.87;;;4.50;99.90;;;;;;5046195;28;20269;-65
2020/12/01 22:22:22;;;;;;;39.77;23.53;;;4.50;99.90;;;;;;5031782;28;20267;-69
2020/12/01 22:25:24;;;;;;;38.70;23.20;;;4.50;99.90;;;;;;5048935;28;20661;-69
2020/12/01 22:28:09;;;;;;;38.57;23.83;;;4.40;99.90;;;;;;5035454;28;20194;-69
2020/12/01 22:30:40;;;;;;;36.07;24.13;;;4.40;99.90;;;;;;5034101;28;20178;-69
2020/12/01 22:33:36;;;;;;;37.90;24.23;;;4.50;99.90;;;;;;5050194;28;20194;-70
